Time;durP1;ratioP1;P1;durP2;ratioP2;P2;SDS_P1;SDS_P2;PMS_P1;PMS_P2;Temp;Humidity;BMP_temperature;BMP_pressure;BME280_temperature;BME280_humidity;BME280_pressure;Samples;Min_cycle;Max_cycle;Signal;HPM_P1;HPM_P2
2021/03/06 00:00:35;;;;;;;1999.90;999.90;;;18.70;85.60;;;;;;5052597;28;20537;-45
2021/03/06 00:03:02;;;;;;;1999.90;999.90;;;18.80;85.60;;;;;;5052642;28;20199;-44
2021/03/06 00:05:29;;;;;;;1999.90;999.90;;;18.70;85.60;;;;;;5052629;28;20647;-46
2021/03/06 00:07:57;;;;;;;1999.90;999.90;;;18.70;85.70;;;;;;5052565;28;20177;-44
2021/03/06 00:10:25;;;;;;;1999.90;999.90;;;18.70;86.00;;;;;;5052523;28;20262;-45
2021/03/06 00:12:53;;;;;;;1999.90;999.90;;;18.60;86.30;;;;;;5052411;28;20242;-46
2021/03/06 00:15:25;;;;;;;1999.90;999.90;;;18.70;86.50;;;;;;5055683;28;20246;-45
2021/03/06 00:17:53;;;;;;;1999.90;999.90;;;18.70;86.30;;;;;;5056496;28;20660;-45
2021/03/06 00:20:20;;;;;;;1999.90;999.90;;;18.80;86.30;;;;;;5056536;28;20172;-45
2021/03/06 00:22:50;;;;;;;1999.90;999.90;;;18.80;86.20;;;;;;5056456;28;20585;-45
2021/03/06 00:25:18;;;;;;;1999.90;999.90;;;18.80;85.80;;;;;;5056359;28;20173;-45
2021/03/06 00:27:45;;;;;;;1999.90;999.90;;;18.80;85.90;;;;;;5056494;28;20180;-44
2021/03/06 00:30:15;;;;;;;1999.90;999.90;;;18.70;86.20;;;;;;5056196;28;20505;-45
2021/03/06 00:32:42;;;;;;;1999.90;999.90;;;18.70;86.70;;;;;;5055855;28;20239;-44
2021/03/06 00:35:10;;;;;;;1999.90;999.90;;;18.60;87.00;;;;;;5056202;28;20162;-44
2021/03/06 00:37:37;;;;;;;1999.90;999.90;;;18.60;87.40;;;;;;5056177;28;20217;-44
2021/03/06 00:40:07;;;;;;;1999.90;999.90;;;18.60;87.60;;;;;;5055995;28;20164;-45
2021/03/06 00:42:34;;;;;;;1999.90;999.90;;;18.50;87.90;;;;;;5055982;28;20170;-45
2021/03/06 00:45:01;;;;;;;1999.90;999.90;;;18.60;87.90;;;;;;5055913;28;20663;-44
2021/03/06 00:47:28;;;;;;;1999.90;999.90;;;18.60;88.20;;;;;;5055932;28;20161;-44
2021/03/06 00:49:55;;;;;;;1999.90;999.90;;;18.50;87.80;;;;;;5055902;28;20170;-45
2021/03/06 00:52:22;;;;;;;1999.90;999.90;;;18.50;88.80;;;;;;5055788;28;20667;-47
2021/03/06 00:54:48;;;;;;;1999.90;999.90;;;18.40;88.80;;;;;;5055872;28;20211;-44
2021/03/06 00:57:15;;;;;;;1999.90;999.90;;;18.40;89.40;;;;;;5055721;28;20166;-45
2021/03/06 00:59:42;;;;;;;1999.90;999.90;;;18.50;89.00;;;;;;5055696;28;20646;-44
2021/03/06 01:02:09;;;;;;;1999.90;999.90;;;18.50;87.50;;;;;;5055650;28;20172;-44
2021/03/06 01:04:35;;;;;;;1999.90;999.90;;;18.50;86.90;;;;;;5055557;28;20196;-45
2021/03/06 01:07:02;;;;;;;1999.90;999.90;;;18.50;86.60;;;;;;5055529;28;20264;-44
2021/03/06 01:09:30;;;;;;;1999.90;999.90;;;18.50;86.70;;;;;;5055408;28;20657;-44
2021/03/06 01:11:56;;;;;;;1999.90;999.90;;;18.40;87.40;;;;;;5055379;28;20188;-47
2021/03/06 01:14:23;;;;;;;1999.90;999.90;;;18.50;87.30;;;;;;5055482;28;20684;-48
2021/03/06 01:16:50;;;;;;;1999.90;999.90;;;18.50;87.00;;;;;;5055522;28;20315;-46
2021/03/06 01:19:17;;;;;;;1999.90;999.90;;;18.50;86.80;;;;;;5055338;28;20169;-46
2021/03/06 01:21:44;;;;;;;1999.90;999.90;;;18.50;86.50;;;;;;5055229;28;20180;-46
2021/03/06 01:24:10;;;;;;;1999.90;999.90;;;18.50;86.70;;;;;;5055277;28;20188;-47
2021/03/06 01:26:37;;;;;;;1999.90;999.90;;;18.40;86.90;;;;;;5054157;28;20173;-46
2021/03/06 01:29:04;;;;;;;1999.90;999.90;;;18.50;87.20;;;;;;5055191;28;20173;-46
2021/03/06 01:31:31;;;;;;;1999.90;999.90;;;18.50;86.70;;;;;;5054893;28;20588;-46
2021/03/06 01:33:57;;;;;;;1999.90;999.90;;;18.50;86.60;;;;;;5055074;28;20284;-47
2021/03/06 01:36:27;;;;;;;1999.90;999.90;;;18.50;86.60;;;;;;5054934;28;20239;-46
2021/03/06 01:38:53;;;;;;;1999.90;999.90;;;18.50;86.90;;;;;;5055065;28;20176;-46
2021/03/06 01:41:20;;;;;;;1999.90;999.90;;;18.50;86.70;;;;;;5055018;28;20173;-47
2021/03/06 01:43:47;;;;;;;1999.90;999.90;;;18.60;86.50;;;;;;5054833;28;20620;-47
2021/03/06 01:46:14;;;;;;;1999.90;999.90;;;18.60;85.80;;;;;;5054897;28;20212;-45
2021/03/06 01:48:41;;;;;;;1999.90;999.90;;;18.60;86.10;;;;;;5054827;28;20176;-45
2021/03/06 01:51:07;;;;;;;1999.90;999.90;;;18.60;85.60;;;;;;5054650;28;20181;-46
2021/03/06 01:53:34;;;;;;;1999.90;999.90;;;18.60;85.80;;;;;;5054658;28;20551;-45
2021/03/06 01:56:01;;;;;;;1999.90;999.90;;;18.60;85.90;;;;;;5054697;28;20245;-46
2021/03/06 01:58:28;;;;;;;1999.90;999.90;;;18.60;86.30;;;;;;5054639;28;20169;-46
2021/03/06 02:00:55;;;;;;;1999.90;999.90;;;18.50;86.60;;;;;;5054716;28;20172;-45
2021/03/06 02:03:22;;;;;;;1999.90;999.90;;;18.50;87.30;;;;;;5054748;28;20525;-45
2021/03/06 02:05:49;;;;;;;1999.90;999.90;;;18.40;87.80;;;;;;5054484;28;20238;-45
2021/03/06 02:08:15;;;;;;;1999.90;999.90;;;18.40;88.10;;;;;;5054428;28;20157;-45
2021/03/06 02:10:44;;;;;;;1999.90;999.90;;;18.20;88.30;;;;;;5054401;28;20164;-46
2021/03/06 02:13:45;;;;;;;1999.90;999.90;;;18.30;88.40;;;;;;5054331;28;20292;-46
2021/03/06 02:16:23;;;;;;;1999.90;999.90;;;18.30;88.20;;;;;;5054262;28;20247;-46
2021/03/06 02:19:07;;;;;;;1999.90;999.90;;;18.20;88.40;;;;;;5054269;28;20168;-46
2021/03/06 02:21:49;;;;;;;1999.90;999.90;;;18.30;88.50;;;;;;5054109;28;20192;-46
2021/03/06 02:24:37;;;;;;;1999.90;999.90;;;18.20;88.80;;;;;;5054176;28;20152;-46
2021/03/06 02:27:14;;;;;;;1999.90;999.90;;;18.20;89.30;;;;;;5054107;28;20161;-46
2021/03/06 02:30:07;;;;;;;1999.90;999.90;;;18.20;89.40;;;;;;5054078;28;20244;-46
2021/03/06 02:32:42;;;;;;;1999.90;999.90;;;18.20;90.00;;;;;;5049260;28;20221;-45
2021/03/06 02:35:28;;;;;;;1999.90;999.90;;;18.20;90.00;;;;;;5053994;28;20165;-45
2021/03/06 02:37:56;;;;;;;1999.90;999.90;;;18.10;90.10;;;;;;5053775;28;20145;-45
2021/03/06 02:40:23;;;;;;;1999.90;999.90;;;18.10;90.20;;;;;;5053759;28;20169;-45
2021/03/06 02:42:51;;;;;;;1999.90;999.90;;;18.00;90.20;;;;;;5053683;28;20649;-45
2021/03/06 02:45:19;;;;;;;1999.90;999.90;;;18.10;90.20;;;;;;5053738;28;20170;-45
2021/03/06 02:47:48;;;;;;;1999.90;999.90;;;18.10;90.20;;;;;;5053645;28;20230;-45
2021/03/06 02:50:15;;;;;;;1999.90;999.90;;;18.10;90.00;;;;;;5053554;28;20537;-44
2021/03/06 02:52:42;;;;;;;1999.90;999.90;;;18.20;89.90;;;;;;5053402;28;20564;-45
2021/03/06 02:55:11;;;;;;;1999.90;999.90;;;18.10;90.00;;;;;;5053492;28;20166;-46
2021/03/06 02:58:01;;;;;;;1999.90;999.90;;;18.10;90.20;;;;;;5053491;28;20164;-45
2021/03/06 03:01:26;;;;;;;1999.90;999.90;;;18.00;90.30;;;;;;5053604;28;20149;-44
2021/03/06 03:04:10;;;;;;;1999.90;999.90;;;18.00;90.40;;;;;;5011652;28;20182;-44
2021/03/06 03:06:38;;;;;;;1999.90;999.90;;;18.00;90.30;;;;;;5011563;28;20175;-44
2021/03/06 03:09:27;;;;;;;1999.90;999.90;;;17.90;90.50;;;;;;5037051;28;20200;-45
2021/03/06 03:12:14;;;;;;;1999.90;999.90;;;17.90;90.50;;;;;;5053264;28;20161;-45
2021/03/06 03:14:51;;;;;;;1999.90;999.90;;;17.80;90.50;;;;;;5053187;28;20292;-45
2021/03/06 03:17:40;;;;;;;1999.90;999.90;;;17.80;90.50;;;;;;5053097;28;20161;-45
2021/03/06 03:20:13;;;;;;;1999.90;999.90;;;17.80;90.50;;;;;;5053071;28;20587;-45
2021/03/06 03:22:45;;;;;;;1999.90;999.90;;;17.70;90.50;;;;;;5052977;28;20168;-46
2021/03/06 03:25:14;;;;;;;1999.90;999.90;;;17.70;90.80;;;;;;5053090;28;20160;-45
2021/03/06 03:27:43;;;;;;;1999.90;999.90;;;17.60;90.90;;;;;;5052964;28;20169;-44
2021/03/06 03:30:16;;;;;;;1999.90;999.90;;;17.60;91.20;;;;;;5052911;28;20169;-45
2021/03/06 03:32:46;;;;;;;1999.90;999.90;;;17.50;91.60;;;;;;5052662;28;20224;-45
2021/03/06 03:35:15;;;;;;;1999.90;999.90;;;17.60;91.50;;;;;;5053026;28;20181;-45
2021/03/06 03:37:44;;;;;;;1999.90;999.90;;;17.60;91.20;;;;;;5052904;28;20200;-45
2021/03/06 03:40:17;;;;;;;1999.90;999.90;;;17.60;91.30;;;;;;5052930;28;20172;-45
2021/03/06 03:42:45;;;;;;;1999.90;999.90;;;17.50;91.20;;;;;;5052889;28;20167;-45
2021/03/06 03:45:13;;;;;;;1999.90;999.90;;;17.50;91.20;;;;;;5052833;28;20211;-45
2021/03/06 03:47:42;;;;;;;1999.90;999.90;;;17.40;91.20;;;;;;5052736;28;20169;-46
2021/03/06 03:50:12;;;;;;;1999.90;999.90;;;17.40;91.20;;;;;;5052195;28;20576;-45
2021/03/06 03:52:44;;;;;;;1999.90;999.90;;;17.50;91.20;;;;;;5052713;28;20205;-47
2021/03/06 03:55:12;;;;;;;1999.90;999.90;;;17.50;91.10;;;;;;5052765;28;20167;-45
2021/03/06 03:57:39;;;;;;;1999.90;999.90;;;17.40;91.10;;;;;;5052751;28;20197;-45
2021/03/06 04:00:09;;;;;;;1999.90;999.90;;;17.40;91.00;;;;;;5052797;28;20169;-45
2021/03/06 04:02:36;;;;;;;1999.90;999.90;;;17.30;90.80;;;;;;5052528;28;20173;-44
2021/03/06 04:05:08;;;;;;;1999.90;999.90;;;17.20;90.70;;;;;;5052778;28;20240;-45
2021/03/06 04:07:48;;;;;;;1999.90;999.90;;;17.10;90.60;;;;;;5052775;28;20150;-45
2021/03/06 04:10:17;;;;;;;1999.90;999.90;;;17.00;90.30;;;;;;5052626;28;20161;-45
2021/03/06 04:12:44;;;;;;;1999.90;999.90;;;17.00;90.10;;;;;;5052526;28;20189;-45
2021/03/06 04:15:13;;;;;;;1999.90;999.90;;;16.90;89.40;;;;;;5052545;28;20180;-45
2021/03/06 04:17:40;;;;;;;1999.90;999.90;;;16.90;89.40;;;;;;5052483;28;20510;-45
2021/03/06 04:20:09;;;;;;;1999.90;999.90;;;16.80;89.40;;;;;;5052594;28;20177;-47
2021/03/06 04:22:36;;;;;;;1999.90;999.90;;;16.80;89.40;;;;;;5052588;28;20197;-45
2021/03/06 04:25:05;;;;;;;1999.90;999.90;;;16.70;89.40;;;;;;5052418;28;20527;-51
2021/03/06 04:27:32;;;;;;;1999.90;999.90;;;16.70;89.40;;;;;;5052455;28;20189;-45
2021/03/06 04:29:59;;;;;;;1999.90;999.90;;;16.70;89.00;;;;;;5052339;28;20718;-45
2021/03/06 04:32:26;;;;;;;1999.90;999.90;;;16.80;88.80;;;;;;5052059;28;20217;-45
2021/03/06 04:34:53;;;;;;;1999.90;999.90;;;16.90;88.60;;;;;;5052225;28;20173;-49
2021/03/06 04:37:19;;;;;;;1999.90;999.90;;;16.90;88.50;;;;;;5052372;28;20169;-48
2021/03/06 04:39:46;;;;;;;1999.90;999.90;;;17.00;88.00;;;;;;5052247;28;20184;-47
2021/03/06 04:42:13;;;;;;;1999.90;999.90;;;17.10;87.70;;;;;;5052281;28;20169;-45
2021/03/06 04:44:40;;;;;;;1999.90;999.90;;;17.20;87.10;;;;;;5052368;28;20172;-44
2021/03/06 04:47:07;;;;;;;1999.90;999.90;;;17.30;86.20;;;;;;5052329;28;20169;-45
2021/03/06 04:49:34;;;;;;;1999.90;999.90;;;17.40;85.10;;;;;;5052237;28;20632;-45
2021/03/06 04:52:00;;;;;;;1999.90;999.90;;;17.50;84.00;;;;;;5052192;28;20222;-44
2021/03/06 04:54:28;;;;;;;1999.90;999.90;;;17.60;83.20;;;;;;5052097;28;20629;-45
2021/03/06 04:56:54;;;;;;;1999.90;999.90;;;17.60;82.70;;;;;;5052148;28;20164;-45
2021/03/06 04:59:21;;;;;;;1999.90;999.90;;;17.70;82.40;;;;;;5052091;28;20641;-46
2021/03/06 05:01:48;;;;;;;1999.90;999.90;;;17.70;82.50;;;;;;5054183;28;20167;-45
2021/03/06 05:04:15;;;;;;;1999.90;999.90;;;17.70;82.40;;;;;;5055633;28;20165;-44
2021/03/06 05:06:42;;;;;;;1999.90;999.90;;;17.70;82.00;;;;;;5055728;28;20169;-45
2021/03/06 05:09:09;;;;;;;1999.90;999.90;;;17.80;81.50;;;;;;5055723;28;20532;-45
2021/03/06 05:11:36;;;;;;;1999.90;999.90;;;17.80;80.90;;;;;;5055536;28;20172;-46
2021/03/06 05:14:02;;;;;;;1999.90;999.90;;;17.90;80.70;;;;;;5055436;28;20251;-45
2021/03/06 05:16:29;;;;;;;1999.90;999.90;;;17.90;80.40;;;;;;5055431;28;20167;-46
2021/03/06 05:18:56;;;;;;;1999.90;999.90;;;17.80;80.60;;;;;;5054071;28;20184;-45
2021/03/06 05:21:23;;;;;;;1999.90;999.90;;;17.80;80.50;;;;;;5055340;28;20696;-45
2021/03/06 05:23:50;;;;;;;1999.90;999.90;;;17.80;83.20;;;;;;5055282;28;20529;-46
2021/03/06 05:26:17;;;;;;;1999.90;999.90;;;17.70;83.10;;;;;;5055226;28;20197;-45
2021/03/06 05:28:44;;;;;;;1999.90;999.90;;;17.60;83.70;;;;;;5055214;28;20185;-45
2021/03/06 05:31:10;;;;;;;1999.90;999.90;;;17.50;83.80;;;;;;5055270;28;20162;-47
2021/03/06 05:33:37;;;;;;;1999.90;999.90;;;17.50;84.50;;;;;;5054731;28;20275;-47
2021/03/06 05:36:04;;;;;;;1999.90;999.90;;;17.50;83.90;;;;;;5054908;28;20643;-46
2021/03/06 05:38:31;;;;;;;1999.90;999.90;;;17.60;83.30;;;;;;5054986;28;20527;-46
2021/03/06 05:40:59;;;;;;;1999.90;999.90;;;17.80;81.90;;;;;;5054926;28;20165;-46
2021/03/06 05:43:26;;;;;;;1999.90;999.90;;;17.90;80.80;;;;;;5054881;28;20199;-47
2021/03/06 05:45:53;;;;;;;1999.90;999.90;;;18.00;80.60;;;;;;5054750;28;20188;-47
2021/03/06 05:48:20;;;;;;;1999.90;999.90;;;18.20;80.20;;;;;;5054773;28;20161;-47
2021/03/06 05:50:48;;;;;;;1999.90;999.90;;;18.30;80.00;;;;;;5054721;28;20172;-48
2021/03/06 05:53:15;;;;;;;1999.90;999.90;;;18.30;79.20;;;;;;5054602;28;20600;-47
2021/03/06 05:55:52;;;;;;;1999.90;999.90;;;18.40;79.60;;;;;;5054945;28;20248;-47
2021/03/06 05:58:22;;;;;;;1999.90;999.90;;;18.50;78.70;;;;;;5054735;28;20153;-46
2021/03/06 06:00:49;;;;;;;1999.90;999.90;;;18.60;77.70;;;;;;5054585;28;20207;-45
2021/03/06 06:03:17;;;;;;;1999.90;999.90;;;18.70;77.80;;;;;;5054571;28;20169;-47
2021/03/06 06:05:46;;;;;;;1999.90;999.90;;;18.80;76.40;;;;;;5054458;28;20197;-47
2021/03/06 06:08:14;;;;;;;1999.90;999.90;;;19.20;75.60;;;;;;5054325;28;20262;-46
2021/03/06 06:10:41;;;;;;;1999.90;999.90;;;19.40;74.10;;;;;;5054203;28;20690;-45
2021/03/06 06:13:08;;;;;;;1999.90;999.90;;;19.70;72.50;;;;;;5053628;28;20200;-45
2021/03/06 06:15:35;;;;;;;1999.90;999.90;;;19.90;71.80;;;;;;5054264;28;20177;-45
2021/03/06 06:18:02;;;;;;;1999.90;999.90;;;19.80;71.80;;;;;;5054239;28;20157;-46
2021/03/06 06:20:28;;;;;;;1999.90;999.90;;;19.80;71.80;;;;;;5054112;28;20173;-46
2021/03/06 06:23:18;;;;;;;1999.90;999.90;;;19.70;71.70;;;;;;5054152;28;20170;-49
2021/03/06 06:25:46;;;;;;;1999.90;999.90;;;19.80;71.50;;;;;;5053998;28;20176;-46
2021/03/06 06:28:12;;;;;;;1999.90;999.90;;;19.90;71.40;;;;;;5053933;28;20248;-46
2021/03/06 06:30:40;;;;;;;1999.90;999.90;;;20.00;70.60;;;;;;5053945;28;20193;-47
2021/03/06 06:33:07;;;;;;;1999.90;999.90;;;20.10;70.70;;;;;;5053477;28;20268;-44
2021/03/06 06:35:41;;;;;;;1999.90;999.90;;;20.20;70.50;;;;;;5053760;28;20169;-47
2021/03/06 06:38:09;;;;;;;1999.90;999.90;;;20.20;69.80;;;;;;5053843;28;20176;-45
2021/03/06 06:40:38;;;;;;;1999.90;999.90;;;20.30;69.90;;;;;;5053778;28;20605;-44
2021/03/06 06:43:24;;;;;;;1999.90;999.90;;;20.40;69.30;;;;;;5053754;28;20161;-47
2021/03/06 06:45:51;;;;;;;1999.90;999.90;;;20.50;69.50;;;;;;5053722;28;20195;-48
2021/03/06 06:48:18;;;;;;;1999.90;999.90;;;20.60;68.60;;;;;;5053702;28;20204;-48
2021/03/06 06:50:45;;;;;;;1999.90;999.90;;;20.70;67.50;;;;;;5053655;28;20188;-50
2021/03/06 06:53:28;;;;;;;1999.90;999.90;;;20.80;66.60;;;;;;5053207;28;20193;-46
2021/03/06 06:55:54;;;;;;;1999.90;999.90;;;20.80;67.00;;;;;;5053590;28;20189;-45
2021/03/06 06:58:41;;;;;;;1999.90;999.90;;;20.90;66.30;;;;;;5053912;28;20547;-46
2021/03/06 07:01:31;;;;;;;1999.90;999.90;;;21.00;66.20;;;;;;5053473;28;20167;-45
2021/03/06 07:04:06;;;;;;;1999.90;999.90;;;21.20;65.40;;;;;;5053342;28;20624;-45
2021/03/06 07:06:35;;;;;;;1999.90;999.90;;;21.30;65.10;;;;;;5053337;28;20157;-45
2021/03/06 07:09:09;;;;;;;1999.90;999.90;;;21.30;64.50;;;;;;5053248;28;20184;-44
2021/03/06 07:11:37;;;;;;;1999.90;999.90;;;21.40;64.30;;;;;;5053533;28;20164;-49
2021/03/06 07:14:04;;;;;;;1999.90;999.90;;;21.40;63.80;;;;;;5052980;28;20201;-46
2021/03/06 07:16:56;;;;;;;1999.90;999.90;;;21.40;63.60;;;;;;5053197;28;20539;-46
2021/03/06 07:19:25;;;;;;;1999.90;999.90;;;21.40;63.30;;;;;;5053217;28;20628;-49
2021/03/06 07:21:52;;;;;;;1999.90;999.90;;;21.60;63.10;;;;;;5053170;28;20203;-46
2021/03/06 07:24:19;;;;;;;1999.90;999.90;;;21.60;62.70;;;;;;5052551;28;20666;-46
2021/03/06 07:26:51;;;;;;;1999.90;999.90;;;21.80;62.70;;;;;;5053016;28;20243;-45
2021/03/06 07:29:19;;;;;;;1999.90;999.90;;;21.90;62.40;;;;;;5052975;28;20252;-45
2021/03/06 07:31:51;;;;;;;1999.90;999.90;;;22.20;61.40;;;;;;5052497;28;20632;-50
2021/03/06 07:34:21;;;;;;;1999.90;999.90;;;22.40;60.30;;;;;;5052788;28;20303;-52
2021/03/06 07:36:49;;;;;;;1999.90;999.90;;;22.40;60.30;;;;;;5052740;28;20176;-46
2021/03/06 07:39:18;;;;;;;1999.90;999.90;;;22.50;59.70;;;;;;5052712;28;20271;-45
2021/03/06 07:41:58;;;;;;;1999.90;999.90;;;22.50;59.90;;;;;;5052748;28;20263;-46
2021/03/06 07:44:27;;;;;;;1999.90;999.90;;;22.60;59.80;;;;;;5052796;28;20157;-53
2021/03/06 07:46:58;;;;;;;1999.90;999.90;;;22.70;59.40;;;;;;5052722;28;20169;-46
2021/03/06 07:49:30;;;;;;;1999.90;999.90;;;22.80;59.30;;;;;;5052718;28;20514;-45
2021/03/06 07:51:59;;;;;;;1999.90;999.90;;;22.90;59.30;;;;;;5052614;28;20168;-44
2021/03/06 07:54:26;;;;;;;1999.90;999.90;;;23.10;59.00;;;;;;5052338;28;20193;-50
2021/03/06 07:56:54;;;;;;;1999.90;999.90;;;23.20;58.10;;;;;;5052530;28;20173;-45
2021/03/06 07:59:48;;;;;;;1999.90;999.90;;;23.30;58.00;;;;;;5052458;28;20180;-48
2021/03/06 08:02:39;;;;;;;1999.90;999.90;;;23.60;57.20;;;;;;5052533;28;20705;-46
2021/03/06 08:05:26;;;;;;;1999.90;999.90;;;23.80;57.10;;;;;;5052693;28;20165;-46
2021/03/06 08:07:53;;;;;;;1999.90;999.90;;;23.90;56.90;;;;;;5052516;28;20204;-49
2021/03/06 08:10:20;;;;;;;1999.90;999.90;;;24.30;56.20;;;;;;5052437;28;20253;-47
2021/03/06 08:12:47;;;;;;;1999.90;999.90;;;24.50;55.60;;;;;;5051111;28;20184;-47
2021/03/06 08:15:27;;;;;;;1999.90;999.90;;;24.70;55.00;;;;;;5051097;28;20173;-46
2021/03/06 08:17:55;;;;;;;1999.90;999.90;;;25.00;54.30;;;;;;5052528;28;20497;-47
2021/03/06 08:20:28;;;;;;;1999.90;999.90;;;25.60;53.50;;;;;;5052186;28;20170;-47
2021/03/06 08:23:23;;;;;;;1999.90;999.90;;;26.10;52.50;;;;;;5052436;28;20164;-47
2021/03/06 08:26:19;;;;;;;1999.90;999.90;;;26.70;51.30;;;;;;5052474;28;20177;-49
2021/03/06 08:28:46;;;;;;;1999.90;999.90;;;26.80;50.30;;;;;;5047610;28;20182;-47
2021/03/06 08:31:38;;;;;;;1999.90;999.90;;;27.20;49.90;;;;;;5052266;28;20200;-46
2021/03/06 08:34:31;;;;;;;1999.90;999.90;;;27.40;49.10;;;;;;5052129;28;20255;-50
2021/03/06 08:37:22;;;;;;;1999.90;999.90;;;27.60;48.70;;;;;;5056186;28;20158;-47
2021/03/06 08:39:59;;;;;;;1999.90;999.90;;;28.30;47.60;;;;;;5055920;28;20153;-45
2021/03/06 08:42:41;;;;;;;1999.90;999.90;;;28.20;47.80;;;;;;5056141;28;20218;-48
2021/03/06 08:45:19;;;;;;;1999.90;999.90;;;28.30;46.90;;;;;;5056153;28;20290;-46
2021/03/06 08:47:52;;;;;;;1999.90;999.90;;;28.60;48.00;;;;;;5055923;28;20522;-47
2021/03/06 08:50:20;;;;;;;1999.90;999.90;;;28.20;48.60;;;;;;5055930;28;20260;-47
2021/03/06 08:53:00;;;;;;;1999.90;999.90;;;28.30;47.80;;;;;;5055779;28;20268;-48
2021/03/06 08:55:40;;;;;;;1999.90;999.90;;;28.20;48.60;;;;;;5056043;28;20199;-50
2021/03/06 08:58:16;;;;;;;1999.90;999.90;;;28.50;48.00;;;;;;5055808;28;20260;-47
2021/03/06 09:00:48;;;;;;;1999.90;999.90;;;28.70;47.30;;;;;;5055656;28;20616;-52
2021/03/06 09:03:21;;;;;;;1999.90;999.90;;;29.00;46.30;;;;;;5055595;28;20174;-45
2021/03/06 09:05:50;;;;;;;1999.90;999.90;;;29.20;45.30;;;;;;5055609;28;20171;-45
2021/03/06 09:08:21;;;;;;;1999.90;999.90;;;29.20;45.60;;;;;;5055532;28;20264;-46
2021/03/06 09:10:50;;;;;;;1999.90;999.90;;;29.60;45.50;;;;;;5055638;28;20189;-44
2021/03/06 09:13:22;;;;;;;1999.90;999.90;;;30.00;44.30;;;;;;5055346;28;20618;-45
2021/03/06 09:15:50;;;;;;;1999.90;999.90;;;30.00;44.20;;;;;;5055472;28;20165;-45
2021/03/06 09:18:23;;;;;;;1999.90;999.90;;;29.90;44.40;;;;;;5055416;28;20176;-47
2021/03/06 09:21:10;;;;;;;1999.90;999.90;;;30.30;43.90;;;;;;5055357;28;20236;-45
2021/03/06 09:23:39;;;;;;;1999.90;999.90;;;29.90;42.60;;;;;;5055157;28;20522;-46
2021/03/06 09:26:09;;;;;;;1999.90;999.90;;;30.00;42.30;;;;;;5055156;28;20169;-48
2021/03/06 09:28:36;;;;;;;1999.90;999.90;;;30.10;42.60;;;;;;5055001;28;20169;-46
2021/03/06 09:31:09;;;;;;;1999.90;999.90;;;30.10;43.20;;;;;;5055556;28;20190;-49
2021/03/06 09:33:38;;;;;;;1999.90;999.90;;;29.50;42.80;;;;;;5054803;28;20236;-50
2021/03/06 09:36:15;;;;;;;1999.90;999.90;;;29.40;43.70;;;;;;5055023;28;20541;-50
2021/03/06 09:38:54;;;;;;;1999.90;999.90;;;29.30;42.80;;;;;;5054919;28;20165;-45
2021/03/06 09:41:23;;;;;;;1999.90;999.90;;;29.70;40.50;;;;;;5054927;28;20527;-50
2021/03/06 09:43:55;;;;;;;1999.90;999.90;;;29.80;41.10;;;;;;5054866;28;20522;-45
2021/03/06 09:46:27;;;;;;;1999.90;999.90;;;29.80;41.30;;;;;;5054074;28;20191;-52
2021/03/06 09:49:11;;;;;;;1999.90;999.90;;;29.80;41.60;;;;;;5054730;28;20238;-45
2021/03/06 09:51:46;;;;;;;1999.90;999.90;;;29.70;42.30;;;;;;5054724;28;20180;-44
2021/03/06 09:54:15;;;;;;;1999.90;999.90;;;29.70;41.50;;;;;;5054722;28;20275;-48
2021/03/06 09:56:51;;;;;;;1999.90;999.90;;;29.70;41.50;;;;;;5054592;28;20543;-48
2021/03/06 09:59:18;;;;;;;1999.90;999.90;;;29.90;41.70;;;;;;5054565;28;20608;-49
2021/03/06 10:01:45;;;;;;;1999.90;999.90;;;29.90;41.30;;;;;;5054566;28;20166;-46
2021/03/06 10:04:17;;;;;;;1999.90;999.90;;;30.20;40.70;;;;;;5054504;28;20161;-48
2021/03/06 10:06:53;;;;;;;1999.90;999.90;;;30.40;40.80;;;;;;5054457;28;20192;-53
2021/03/06 10:09:22;;;;;;;1999.90;999.90;;;30.60;40.00;;;;;;5054425;28;20325;-46
2021/03/06 10:11:51;;;;;;;1999.90;999.90;;;30.40;40.00;;;;;;5054372;28;20161;-46
2021/03/06 10:14:24;;;;;;;1999.90;999.90;;;30.10;40.60;;;;;;5054150;28;20283;-50
2021/03/06 10:16:57;;;;;;;1999.90;999.90;;;30.20;39.40;;;;;;5054184;28;20149;-48
2021/03/06 10:19:26;;;;;;;1999.90;999.90;;;30.00;39.00;;;;;;5054226;28;20647;-55
2021/03/06 10:22:08;;;;;;;1999.90;999.90;;;29.80;39.70;;;;;;5054262;28;20177;-52
2021/03/06 10:24:59;;;;;;;1999.90;999.90;;;30.30;38.50;;;;;;5054307;28;20185;-48
2021/03/06 10:27:40;;;;;;;1999.90;999.90;;;30.10;37.80;;;;;;5054026;28;20250;-45
2021/03/06 10:30:15;;;;;;;1999.90;999.90;;;30.40;39.10;;;;;;5054050;28;20196;-46
2021/03/06 10:32:43;;;;;;;1999.90;999.90;;;30.80;37.20;;;;;;5053592;28;20244;-46
2021/03/06 10:35:40;;;;;;;1999.90;999.90;;;31.60;38.30;;;;;;5053870;28;20512;-46
2021/03/06 10:38:09;;;;;;;1999.90;999.90;;;31.70;38.00;;;;;;5049731;28;20178;-52
2021/03/06 10:40:54;;;;;;;1999.90;999.90;;;31.30;38.40;;;;;;5053816;28;20166;-47
2021/03/06 10:43:41;;;;;;;1999.90;999.90;;;31.00;38.80;;;;;;5053710;28;20620;-51
2021/03/06 10:46:24;;;;;;;1999.90;999.90;;;29.80;38.90;;;;;;5053893;28;20152;-49
2021/03/06 10:48:56;;;;;;;1999.90;999.90;;;29.00;38.60;;;;;;5053652;28;20247;-48
2021/03/06 10:51:24;;;;;;;1999.90;999.90;;;28.50;39.80;;;;;;5053693;28;20166;-46
2021/03/06 10:54:05;;;;;;;1999.90;999.90;;;28.90;39.70;;;;;;5053429;28;20247;-48
2021/03/06 10:56:32;;;;;;;1999.90;999.90;;;29.40;39.20;;;;;;5053506;28;20153;-53
2021/03/06 10:58:59;;;;;;;1999.90;999.90;;;29.40;40.50;;;;;;5053238;28;20212;-47
2021/03/06 11:01:26;;;;;;;1999.90;999.90;;;29.50;41.80;;;;;;5053305;28;20197;-46
2021/03/06 11:03:53;;;;;;;1999.90;999.90;;;29.70;42.40;;;;;;5053331;28;20548;-46
2021/03/06 11:06:20;;;;;;;1999.90;999.90;;;29.70;41.50;;;;;;5053297;28;20616;-46
2021/03/06 11:09:05;;;;;;;1999.90;999.90;;;29.20;41.50;;;;;;5053284;28;20699;-51
2021/03/06 11:11:32;;;;;;;1999.90;999.90;;;28.50;43.00;;;;;;5053206;28;20187;-50
2021/03/06 11:13:59;;;;;;;1999.90;999.90;;;28.30;43.90;;;;;;5051863;28;20562;-47
2021/03/06 11:16:40;;;;;;;1999.90;999.90;;;28.30;43.40;;;;;;5053106;28;20192;-47
2021/03/06 11:19:07;;;;;;;1999.90;999.90;;;28.30;43.90;;;;;;5053314;28;20169;-48
2021/03/06 11:21:35;;;;;;;1999.90;999.90;;;28.20;43.90;;;;;;5053336;28;20561;-45
2021/03/06 11:24:02;;;;;;;1999.90;999.90;;;28.30;44.50;;;;;;5053020;28;20671;-47
2021/03/06 11:26:29;;;;;;;1999.90;999.90;;;28.80;43.60;;;;;;5052970;28;20173;-45
2021/03/06 11:28:56;;;;;;;1999.90;999.90;;;28.90;41.90;;;;;;5052960;28;20166;-46
2021/03/06 11:31:24;;;;;;;1999.90;999.90;;;28.80;41.60;;;;;;5052979;28;20169;-47
2021/03/06 11:33:51;;;;;;;1999.90;999.90;;;28.80;41.70;;;;;;5052692;28;20221;-46
2021/03/06 11:36:18;;;;;;;1999.90;999.90;;;28.60;43.40;;;;;;5052853;28;20173;-47
2021/03/06 11:38:44;;;;;;;1999.90;999.90;;;28.30;44.50;;;;;;5052737;28;20251;-48
2021/03/06 11:41:11;;;;;;;1999.90;999.90;;;28.20;45.10;;;;;;5053131;28;20165;-46
2021/03/06 11:43:38;;;;;;;1999.90;999.90;;;28.20;44.70;;;;;;5052655;28;20248;-46
2021/03/06 11:46:05;;;;;;;1999.90;999.90;;;28.10;45.30;;;;;;5052746;28;20165;-45
2021/03/06 11:48:32;;;;;;;1999.90;999.90;;;27.80;47.20;;;;;;5051318;28;20180;-47
2021/03/06 11:50:59;;;;;;;1999.90;999.90;;;27.60;46.60;;;;;;5052582;28;20302;-46
2021/03/06 11:53:25;;;;;;;1999.90;999.90;;;28.00;47.10;;;;;;5052559;28;20200;-46
2021/03/06 11:55:52;;;;;;;1999.90;999.90;;;27.90;47.60;;;;;;5052556;28;20223;-46
2021/03/06 11:58:19;;;;;;;1999.90;999.90;;;28.10;46.70;;;;;;5052591;28;20647;-46
2021/03/06 12:00:46;;;;;;;1999.90;999.90;;;28.80;46.00;;;;;;5052630;28;20165;-50
2021/03/06 12:03:13;;;;;;;1999.90;999.90;;;29.30;43.90;;;;;;5052649;28;20627;-50
2021/03/06 12:05:39;;;;;;;1999.90;999.90;;;29.10;44.30;;;;;;5052605;28;20173;-47
2021/03/06 12:08:06;;;;;;;1999.90;999.90;;;29.30;45.00;;;;;;5052486;28;20698;-48
2021/03/06 12:10:33;;;;;;;1999.90;999.90;;;29.70;44.30;;;;;;5054339;28;20173;-47
2021/03/06 12:13:00;;;;;;;1999.90;999.90;;;30.10;44.10;;;;;;5056470;28;20193;-48
2021/03/06 12:15:27;;;;;;;1999.90;999.90;;;30.00;43.90;;;;;;5056436;28;20170;-45
2021/03/06 12:17:54;;;;;;;1999.90;999.90;;;29.90;44.00;;;;;;5056430;28;20161;-46